createdAt,value
2022-12-09T00:01:30.787Z,97449.03
2022-12-09T00:04:00.454Z,97445.47
2022-12-09T00:06:29.227Z,97449.34
2022-12-09T00:08:58.079Z,97452.25
2022-12-09T00:11:26.323Z,97445.44
2022-12-09T00:13:55.667Z,97444.47
2022-12-09T00:16:24.657Z,97434.31
2022-12-09T00:18:53.617Z,97435.88
2022-12-09T00:21:24.198Z,97440.53
2022-12-09T00:23:53.703Z,97437.31
2022-12-09T00:26:22.456Z,97435.31
2022-12-09T00:28:51.137Z,97429.63
2022-12-09T00:31:20.292Z,97426.38
2022-12-09T00:33:48.706Z,97424.66
2022-12-09T00:36:17.508Z,97436.00
2022-12-09T00:38:46.978Z,97420.28
2022-12-09T00:41:16.036Z,97424.47
2022-12-09T00:43:44.745Z,97425.97
2022-12-09T00:46:15.806Z,97424.84
2022-12-09T00:48:45.557Z,97431.31
2022-12-09T00:51:15.022Z,97433.38
2022-12-09T00:53:43.444Z,97429.72
2022-12-09T00:56:12.825Z,97430.97
2022-12-09T00:58:40.977Z,97432.97
2022-12-09T01:01:09.029Z,97436.50
2022-12-09T01:03:37.903Z,97419.34
2022-12-09T01:06:22.689Z,97437.97
2022-12-09T01:08:51.394Z,97442.50
2022-12-09T01:11:22.025Z,97450.97
2022-12-09T01:13:50.991Z,97442.69
2022-12-09T01:16:21.323Z,97451.94
2022-12-09T01:18:50.137Z,97449.06
2022-12-09T01:21:18.295Z,97449.94
2022-12-09T01:23:47.083Z,97447.69
2022-12-09T01:26:15.407Z,97446.41
2022-12-09T01:28:44.989Z,97440.81
2022-12-09T01:31:15.545Z,97445.91
2022-12-09T01:33:44.710Z,97444.13
2022-12-09T01:36:14.537Z,97437.53
2022-12-09T01:38:43.168Z,97438.19
2022-12-09T01:41:11.190Z,97432.13
2022-12-09T01:43:39.423Z,97437.81
2022-12-09T01:46:09.023Z,97434.81
2022-12-09T01:48:39.001Z,97426.75
2022-12-09T01:51:11.162Z,97427.41
2022-12-09T01:53:39.962Z,97420.56
2022-12-09T01:56:11.996Z,97422.94
2022-12-09T01:58:40.374Z,97411.94
2022-12-09T02:01:10.320Z,97417.09
2022-12-09T02:03:38.867Z,97411.78
2022-12-09T02:06:07.531Z,97417.31
2022-12-09T02:08:35.730Z,97406.13
2022-12-09T02:11:08.560Z,97395.38
2022-12-09T02:13:45.569Z,97385.38
2022-12-09T02:16:18.267Z,97390.97
2022-12-09T02:18:49.658Z,97389.97
2022-12-09T02:21:20.378Z,97383.69
2022-12-09T02:23:54.357Z,97381.69
2022-12-09T02:26:25.985Z,97380.16
2022-12-09T02:29:18.443Z,97359.91
2022-12-09T02:32:14.728Z,97376.16
2022-12-09T02:34:51.984Z,97371.38
2022-12-09T02:37:24.722Z,97377.97
2022-12-09T02:40:00.767Z,97374.59
2022-12-09T02:42:34.024Z,97358.53
2022-12-09T02:45:07.543Z,97369.38
2022-12-09T02:47:45.005Z,97370.72
2022-12-09T02:50:20.179Z,97361.53
2022-12-09T02:52:52.717Z,97341.00
2022-12-09T02:55:23.678Z,97358.47
2022-12-09T02:58:00.673Z,97353.13
2022-12-09T03:00:34.166Z,97350.00
2022-12-09T03:03:05.560Z,97335.84
2022-12-09T03:05:45.629Z,97343.13
2022-12-09T03:08:23.074Z,97338.28
2022-12-09T03:10:57.231Z,97331.00
2022-12-09T03:13:36.614Z,97337.84
2022-12-09T03:16:11.508Z,97316.34
2022-12-09T03:18:46.495Z,97335.59
2022-12-09T03:21:21.304Z,97337.03
2022-12-09T03:23:54.442Z,97337.72
2022-12-09T03:26:23.440Z,97334.69
2022-12-09T03:28:53.514Z,97335.78
2022-12-09T03:31:23.233Z,97325.09
2022-12-09T03:33:53.704Z,97317.63
2022-12-09T03:36:24.312Z,97317.78
2022-12-09T03:38:52.821Z,97323.28
2022-12-09T03:41:24.879Z,97321.78
2022-12-09T03:43:56.735Z,97319.50
2022-12-09T03:46:25.282Z,97328.84
2022-12-09T03:48:55.870Z,97328.66
2022-12-09T03:51:27.417Z,97323.13
2022-12-09T03:53:59.441Z,97328.19
2022-12-09T03:56:31.845Z,97325.19
2022-12-09T03:59:01.852Z,97322.06
2022-12-09T04:01:31.299Z,97328.66
2022-12-09T04:03:59.547Z,97328.25
2022-12-09T04:06:29.079Z,97318.28
2022-12-09T04:09:02.161Z,97325.81
2022-12-09T04:11:31.607Z,97320.34
2022-12-09T04:13:59.731Z,97317.03
2022-12-09T04:16:27.834Z,97320.16
2022-12-09T04:18:55.950Z,97321.25
2022-12-09T04:21:24.028Z,97321.00
2022-12-09T04:23:53.420Z,97312.66
2022-12-09T04:26:22.595Z,97270.97
2022-12-09T04:28:51.316Z,97308.53
2022-12-09T04:31:22.163Z,97301.00
2022-12-09T04:33:50.319Z,97300.94
2022-12-09T04:36:19.171Z,97293.91
2022-12-09T04:38:47.807Z,97289.50
2022-12-09T04:41:17.570Z,97291.97
2022-12-09T04:43:45.831Z,97280.25
2022-12-09T04:46:14.854Z,97289.13
2022-12-09T04:48:43.173Z,97270.72
2022-12-09T04:51:11.905Z,97272.84
2022-12-09T04:53:40.138Z,97273.88
2022-12-09T04:56:09.479Z,97266.31
2022-12-09T04:58:39.077Z,97259.56
2022-12-09T05:01:08.495Z,97259.78
2022-12-09T05:03:37.802Z,97256.75
2022-12-09T05:06:13.431Z,97261.66
2022-12-09T05:08:42.500Z,97254.72
2022-12-09T05:11:10.791Z,97253.72
2022-12-09T05:13:40.286Z,97248.44
2022-12-09T05:16:15.711Z,97248.56
2022-12-09T05:18:44.813Z,97249.72
2022-12-09T05:21:13.834Z,97244.63
2022-12-09T05:23:42.369Z,97242.53
2022-12-09T05:26:11.461Z,97238.09
2022-12-09T05:28:41.149Z,97240.00
2022-12-09T05:31:13.191Z,97238.94
2022-12-09T05:33:42.199Z,97238.53
2022-12-09T05:36:11.088Z,97238.28
2022-12-09T05:38:39.814Z,97241.25
2022-12-09T05:41:08.389Z,97236.03
2022-12-09T05:43:37.752Z,97227.88
2022-12-09T05:46:07.839Z,97229.53
2022-12-09T05:48:36.817Z,97228.44
2022-12-09T05:51:06.551Z,97225.97
2022-12-09T05:53:35.316Z,97228.78
2022-12-09T05:56:04.167Z,97226.69
2022-12-09T05:58:32.620Z,97219.59
2022-12-09T06:01:04.320Z,97223.00
2022-12-09T06:03:34.202Z,97214.75
2022-12-09T06:06:07.356Z,97221.50
2022-12-09T06:08:36.226Z,97201.22
2022-12-09T06:11:05.652Z,97211.00
2022-12-09T06:13:34.120Z,97203.19
2022-12-09T06:16:04.386Z,97200.81
2022-12-09T06:18:34.616Z,97204.44
2022-12-09T06:21:06.414Z,97201.72
2022-12-09T06:23:36.702Z,97201.59
2022-12-09T06:26:07.575Z,97206.41
2022-12-09T06:28:36.036Z,97199.31
2022-12-09T06:31:05.014Z,97197.91
2022-12-09T06:33:54.372Z,97203.91
2022-12-09T06:36:23.699Z,97196.38
2022-12-09T06:38:52.691Z,97190.59
2022-12-09T06:41:21.303Z,97194.19
2022-12-09T06:43:50.221Z,97198.22
2022-12-09T06:46:23.350Z,97163.75
2022-12-09T06:48:54.911Z,97199.06
2022-12-09T06:51:26.801Z,97198.13
2022-12-09T06:53:55.630Z,97190.78
2022-12-09T06:56:27.002Z,97180.00
2022-12-09T06:58:55.475Z,97210.47
2022-12-09T07:01:26.115Z,97199.06
2022-12-09T07:03:58.285Z,97204.72
2022-12-09T07:06:29.586Z,97210.63
2022-12-09T07:09:00.146Z,97207.81
2022-12-09T07:11:29.681Z,97208.88
2022-12-09T07:13:58.972Z,97212.13
2022-12-09T07:16:27.682Z,97197.03
2022-12-09T07:18:58.357Z,97208.81
2022-12-09T07:21:27.141Z,97201.19
2022-12-09T07:23:56.008Z,97202.97
2022-12-09T07:26:24.894Z,97195.88
2022-12-09T07:28:53.765Z,97191.41
2022-12-09T07:31:25.341Z,97187.97
2022-12-09T07:33:56.425Z,97180.81
2022-12-09T07:36:30.945Z,97186.28
2022-12-09T07:39:01.108Z,97177.66
2022-12-09T07:41:30.302Z,97180.72
2022-12-09T07:43:59.204Z,97186.81
2022-12-09T07:46:28.752Z,97179.16
2022-12-09T07:48:58.645Z,97190.81
2022-12-09T07:51:29.566Z,97197.09
2022-12-09T07:53:58.877Z,97189.66
2022-12-09T07:56:28.637Z,97198.00
2022-12-09T07:58:58.176Z,97189.22
2022-12-09T08:01:27.843Z,97189.19
2022-12-09T08:03:57.251Z,97195.84
2022-12-09T08:06:27.385Z,97192.69
2022-12-09T08:08:58.509Z,97189.22
2022-12-09T08:11:28.634Z,97198.31
2022-12-09T08:13:58.474Z,97195.09
2022-12-09T08:16:27.014Z,97196.41
2022-12-09T08:18:56.443Z,97180.19
2022-12-09T08:21:25.724Z,97181.75
2022-12-09T08:23:54.412Z,97174.28
2022-12-09T08:26:24.998Z,97172.53
2022-12-09T08:28:54.239Z,97173.16
2022-12-09T08:31:24.417Z,97172.19
2022-12-09T08:33:53.297Z,97167.88
2022-12-09T08:36:23.092Z,97171.34
2022-12-09T08:38:51.668Z,97163.88
2022-12-09T08:41:21.454Z,97167.41
2022-12-09T08:43:51.302Z,97160.03
2022-12-09T08:46:19.717Z,97152.16
2022-12-09T08:48:48.162Z,97157.56
2022-12-09T08:51:16.534Z,97150.53
2022-12-09T08:53:45.006Z,97146.81
2022-12-09T08:56:14.702Z,97139.22
2022-12-09T08:58:43.447Z,97141.63
2022-12-09T09:01:17.433Z,97152.88
2022-12-09T09:03:47.085Z,97146.44
2022-12-09T09:06:16.327Z,97154.34
2022-12-09T09:08:47.791Z,97146.06
2022-12-09T09:11:17.072Z,97139.34
2022-12-09T09:13:46.199Z,97139.91
2022-12-09T09:16:16.890Z,97135.06
2022-12-09T09:18:47.505Z,97135.31
2022-12-09T09:21:17.660Z,97136.75
2022-12-09T09:23:48.789Z,97127.75
2022-12-09T09:26:17.896Z,97127.31
2022-12-09T09:28:46.581Z,97126.66
2022-12-09T09:31:15.975Z,97128.63
2022-12-09T09:33:44.551Z,97129.94
2022-12-09T09:36:15.616Z,97133.44
2022-12-09T09:38:43.970Z,97133.50
2022-12-09T09:41:19.554Z,97132.97
2022-12-09T09:43:48.525Z,97142.84
2022-12-09T09:46:20.057Z,97135.16
2022-12-09T09:48:49.039Z,97134.47
2022-12-09T09:51:20.521Z,97113.72
2022-12-09T09:53:50.744Z,97113.63
2022-12-09T09:56:25.522Z,97102.94
2022-12-09T09:58:57.265Z,97103.47
2022-12-09T10:01:27.826Z,97099.84
2022-12-09T10:04:01.693Z,97110.66
2022-12-09T10:06:36.542Z,97105.91
2022-12-09T10:09:15.106Z,97102.00
2022-12-09T10:11:53.237Z,97094.44
2022-12-09T10:14:28.619Z,97091.75
2022-12-09T10:17:02.384Z,97083.25
2022-12-09T10:19:33.013Z,97082.84
2022-12-09T10:22:12.101Z,97072.13
2022-12-09T10:24:43.929Z,97087.63
2022-12-09T10:27:15.997Z,97084.78
2022-12-09T10:29:52.889Z,97080.31
2022-12-09T10:32:22.432Z,97087.38
2022-12-09T10:34:51.483Z,97090.41
2022-12-09T10:37:25.939Z,97093.41
2022-12-09T10:39:57.476Z,97081.78
2022-12-09T10:42:44.814Z,97080.31
2022-12-09T10:45:13.552Z,97076.69
2022-12-09T10:47:42.955Z,97073.19
2022-12-09T10:50:24.534Z,97071.19
2022-12-09T10:52:54.701Z,97060.72
2022-12-09T10:55:25.723Z,97055.13
2022-12-09T10:58:10.377Z,97059.72
2022-12-09T11:00:39.037Z,97067.06
2022-12-09T11:03:24.679Z,97062.81
2022-12-09T11:05:56.538Z,97059.94
2022-12-09T11:08:26.590Z,97056.41
2022-12-09T11:10:55.398Z,97059.41
2022-12-09T11:13:28.793Z,97055.72
2022-12-09T11:16:01.285Z,97046.19
2022-12-09T11:18:31.248Z,97050.91
2022-12-09T11:21:00.918Z,97039.44
2022-12-09T11:23:30.962Z,97040.59
2022-12-09T11:26:01.111Z,97037.72
2022-12-09T11:28:31.050Z,97042.50
2022-12-09T11:33:50.245Z,97054.78
2022-12-09T11:36:20.628Z,97047.81
2022-12-09T11:38:50.960Z,97033.47
2022-12-09T11:41:34.848Z,97031.81
2022-12-09T11:44:04.071Z,97036.63
2022-12-09T11:46:33.450Z,97027.69
2022-12-09T11:49:03.537Z,97024.47
2022-12-09T11:51:33.893Z,97021.97
2022-12-09T11:54:05.447Z,97019.84
2022-12-09T11:56:34.055Z,97015.56
2022-12-09T11:59:04.236Z,97012.19
2022-12-09T12:01:39.146Z,97003.56
2022-12-09T12:04:08.838Z,97001.56
2022-12-09T12:06:43.280Z,97020.34
2022-12-09T12:09:16.027Z,97007.72
2022-12-09T12:11:46.499Z,97012.59
2022-12-09T12:14:16.816Z,97017.91
2022-12-09T12:16:49.965Z,97010.41
2022-12-09T12:19:22.550Z,97005.63
2022-12-09T12:21:57.002Z,97011.16
2022-12-09T12:24:33.414Z,97001.44
2022-12-09T12:27:08.373Z,97000.13
2022-12-09T12:29:45.093Z,96992.94
2022-12-09T12:32:19.719Z,96995.31
2022-12-09T12:34:53.284Z,97005.16
2022-12-09T12:37:30.109Z,97008.38
2022-12-09T12:40:03.998Z,97015.28
2022-12-09T12:42:35.387Z,97009.34
2022-12-09T12:45:29.241Z,97005.00
2022-12-09T12:48:02.777Z,97004.44
2022-12-09T12:50:38.690Z,96994.97
2022-12-09T12:53:13.093Z,97002.09
2022-12-09T12:55:48.881Z,96996.84
2022-12-09T12:58:31.273Z,96991.47
2022-12-09T13:01:02.611Z,97009.91
2022-12-09T13:03:34.801Z,96999.59
2022-12-09T13:06:02.919Z,97010.50
2022-12-09T13:08:36.046Z,97005.34
2022-12-09T13:11:08.287Z,97009.19
2022-12-09T13:13:39.493Z,97003.84
2022-12-09T13:16:17.112Z,97012.59
2022-12-09T13:18:45.433Z,97003.59
2022-12-09T13:21:16.372Z,97005.91
2022-12-09T13:23:56.342Z,97005.09
2022-12-09T13:26:31.671Z,97007.00
2022-12-09T13:29:04.520Z,97015.03
2022-12-09T13:31:37.732Z,97011.69
2022-12-09T13:34:18.098Z,97015.75
2022-12-09T13:36:47.283Z,97006.91
2022-12-09T13:39:32.420Z,97002.22
2022-12-09T13:42:19.485Z,97008.63
2022-12-09T13:44:47.628Z,97013.16
2022-12-09T13:47:16.806Z,96999.84
2022-12-09T13:49:52.837Z,97013.16
2022-12-09T13:52:38.118Z,97012.94
2022-12-09T13:55:18.296Z,96986.94
2022-12-09T13:57:53.548Z,97017.44
2022-12-09T14:00:21.869Z,97016.47
2022-12-09T14:02:53.907Z,97013.19
2022-12-09T14:05:24.855Z,97000.44
2022-12-09T14:07:54.891Z,96995.13
2022-12-09T14:10:36.519Z,97002.66
2022-12-09T14:13:19.675Z,97009.94
2022-12-09T14:15:48.638Z,97013.00
2022-12-09T14:18:30.910Z,97023.69
2022-12-09T14:21:17.780Z,97014.53
2022-12-09T14:24:00.765Z,97019.28
2022-12-09T14:26:35.313Z,97014.06
2022-12-09T14:29:04.923Z,97018.25
2022-12-09T14:31:46.720Z,97029.69
2022-12-09T14:34:24.598Z,97026.06
2022-12-09T14:36:59.009Z,97020.97
2022-12-09T14:39:30.218Z,97027.31
2022-12-09T14:42:00.039Z,97006.22
2022-12-09T14:44:32.884Z,97027.44
2022-12-09T14:47:13.649Z,97036.88
2022-12-09T14:49:49.129Z,97044.91
2022-12-09T14:52:22.127Z,97043.22
2022-12-09T14:54:50.485Z,97043.72
2022-12-09T14:57:24.614Z,97046.81
2022-12-09T14:59:57.942Z,97047.81
2022-12-09T15:02:27.107Z,97056.00
2022-12-09T15:04:55.747Z,97054.78
2022-12-09T15:07:25.097Z,97058.25
2022-12-09T15:09:55.403Z,97066.22
2022-12-09T15:12:26.238Z,97061.59
2022-12-09T15:14:57.708Z,97065.34
2022-12-09T15:17:29.864Z,97061.50
2022-12-09T15:20:00.554Z,97057.19
2022-12-09T15:22:31.143Z,97064.88
2022-12-09T15:24:59.704Z,97064.78
2022-12-09T15:27:27.718Z,97066.09
2022-12-09T15:29:57.137Z,97068.44
2022-12-09T15:32:26.907Z,97063.03
2022-12-09T15:34:55.492Z,97064.91
2022-12-09T15:37:25.836Z,97062.22
2022-12-09T15:39:56.437Z,97069.44
2022-12-09T15:42:27.638Z,97069.22
2022-12-09T15:45:03.435Z,97070.88
2022-12-09T15:47:34.785Z,97066.56
2022-12-09T15:50:05.176Z,97069.03
2022-12-09T15:52:35.912Z,97076.25
2022-12-09T15:55:07.836Z,97064.25
2022-12-09T15:57:36.642Z,97062.00
2022-12-09T16:00:07.008Z,97066.16
2022-12-09T16:02:38.576Z,97074.00
2022-12-09T16:05:08.366Z,97062.94
2022-12-09T16:07:36.563Z,97076.41
2022-12-09T16:10:07.073Z,97088.75
2022-12-09T16:12:36.457Z,97085.06
2022-12-09T16:15:07.104Z,97080.78
2022-12-09T16:17:38.207Z,97090.41
2022-12-09T16:20:22.938Z,97090.19
2022-12-09T16:22:51.373Z,97085.06
2022-12-09T16:25:22.019Z,97090.41
2022-12-09T16:27:51.926Z,97082.16
2022-12-09T16:30:25.484Z,97076.00
2022-12-09T16:32:54.195Z,97079.13
2022-12-09T16:35:24.585Z,97081.13
2022-12-09T16:38:14.415Z,97086.59
2022-12-09T16:41:01.139Z,97079.28
2022-12-09T16:43:30.448Z,97076.03
2022-12-09T16:46:00.886Z,97087.06
2022-12-09T16:48:30.186Z,97087.94
2022-12-09T16:50:59.895Z,97087.13
2022-12-09T16:53:31.017Z,97084.66
2022-12-09T16:56:02.420Z,97095.53
2022-12-09T16:58:31.056Z,97100.66
2022-12-09T17:01:01.263Z,97100.22
2022-12-09T17:03:33.611Z,97099.00
2022-12-09T17:06:02.037Z,97103.28
2022-12-09T17:08:32.043Z,97104.75
2022-12-09T17:11:00.099Z,97107.41
2022-12-09T17:13:28.146Z,97105.69
2022-12-09T17:15:58.550Z,97101.25
2022-12-09T17:18:31.026Z,97094.03
2022-12-09T17:21:02.609Z,97103.81
2022-12-09T17:23:36.089Z,97096.38
2022-12-09T17:26:08.490Z,97110.47
2022-12-09T17:28:36.554Z,97111.41
2022-12-09T17:31:08.614Z,97101.28
2022-12-09T17:33:40.525Z,97104.09
2022-12-09T17:36:09.017Z,97104.28
2022-12-09T17:38:37.173Z,97108.84
2022-12-09T17:41:05.604Z,97101.72
2022-12-09T17:43:33.748Z,97108.41
2022-12-09T17:46:05.194Z,97108.28
2022-12-09T17:48:34.015Z,97108.84
2022-12-09T17:51:06.979Z,97110.25
2022-12-09T17:53:36.301Z,97104.94
2022-12-09T17:56:07.922Z,97107.63
2022-12-09T17:58:36.293Z,97114.56
2022-12-09T18:01:04.754Z,97111.91
2022-12-09T18:03:55.076Z,97112.91
2022-12-09T18:06:22.191Z,97117.97
2022-12-09T18:08:50.314Z,97120.16
2022-12-09T18:11:18.456Z,97121.75
2022-12-09T18:13:46.618Z,97122.06
2022-12-09T18:16:15.329Z,97114.75
2022-12-09T18:18:44.002Z,97128.09
2022-12-09T18:21:15.880Z,97130.44
2022-12-09T18:23:46.105Z,97136.50
2022-12-09T18:26:15.963Z,97136.28
2022-12-09T18:28:44.167Z,97136.69
2022-12-09T18:31:13.211Z,97142.66
2022-12-09T18:33:41.869Z,97146.09
2022-12-09T18:36:11.487Z,97147.34
2022-12-09T18:38:40.289Z,97152.06
2022-12-09T18:41:13.480Z,97150.41
2022-12-09T18:43:42.765Z,97157.16
2022-12-09T18:46:12.523Z,97156.97
2022-12-09T18:48:40.782Z,97155.13
2022-12-09T18:51:14.843Z,97150.63
2022-12-09T18:53:43.493Z,97154.09
2022-12-09T18:56:13.661Z,97152.78
2022-12-09T18:59:05.312Z,97152.28
2022-12-09T19:01:31.225Z,97149.38
2022-12-09T19:04:00.354Z,97143.66
2022-12-09T19:06:29.383Z,97142.41
2022-12-09T19:08:58.772Z,97143.66
2022-12-09T19:11:29.568Z,97149.41
2022-12-09T19:13:58.453Z,97145.69
2022-12-09T19:16:27.245Z,97146.31
2022-12-09T19:18:56.067Z,97145.28
2022-12-09T19:21:24.765Z,97146.34
2022-12-09T19:23:53.041Z,97147.38
2022-12-09T19:26:22.145Z,97140.16
2022-12-09T19:28:53.032Z,97148.75
2022-12-09T19:31:22.264Z,97147.13
2022-12-09T19:33:50.544Z,97151.66
2022-12-09T19:36:18.658Z,97157.59
2022-12-09T19:38:46.732Z,97152.25
2022-12-09T19:41:14.879Z,97154.09
2022-12-09T19:43:43.014Z,97162.50
2022-12-09T19:46:13.156Z,97168.44
2022-12-09T19:48:41.975Z,97162.94
2022-12-09T19:51:10.924Z,97169.69
2022-12-09T19:53:39.521Z,97171.47
2022-12-09T19:56:12.323Z,97176.00
2022-12-09T19:58:44.122Z,97177.81
2022-12-09T20:01:14.827Z,97181.09
2022-12-09T20:03:44.450Z,97181.69
2022-12-09T20:06:16.022Z,97190.69
2022-12-09T20:08:44.449Z,97189.47
2022-12-09T20:11:13.572Z,97191.28
2022-12-09T20:13:41.940Z,97187.19
2022-12-09T20:16:11.149Z,97197.22
2022-12-09T20:18:41.033Z,97188.44
2022-12-09T20:21:10.233Z,97193.50
2022-12-09T20:23:42.313Z,97183.91
2022-12-09T20:26:11.926Z,97187.84
2022-12-09T20:28:40.769Z,97193.38
2022-12-09T20:31:09.626Z,97201.09
2022-12-09T20:33:38.233Z,97191.09
2022-12-09T20:36:08.520Z,97191.09
2022-12-09T20:38:37.502Z,97198.44
2022-12-09T20:41:06.281Z,97194.56
2022-12-09T20:43:39.437Z,97194.78
2022-12-09T20:46:09.172Z,97190.03
2022-12-09T20:48:43.539Z,97189.25
2022-12-09T20:51:14.580Z,97197.47
2022-12-09T20:53:43.821Z,97198.06
2022-12-09T20:56:12.442Z,97199.31
2022-12-09T20:58:41.492Z,97201.34
2022-12-09T21:01:10.835Z,97197.66
2022-12-09T21:03:39.332Z,97201.72
2022-12-09T21:06:07.726Z,97206.69
2022-12-09T21:08:37.730Z,97209.13
2022-12-09T21:11:06.656Z,97202.97
2022-12-09T21:13:37.681Z,97200.91
2022-12-09T21:16:06.833Z,97202.63
2022-12-09T21:18:35.770Z,97204.47
2022-12-09T21:21:04.180Z,97200.75
2022-12-09T21:23:34.166Z,97203.81
2022-12-09T21:26:07.761Z,97203.38
2022-12-09T21:28:36.093Z,97196.19
2022-12-09T21:31:08.006Z,97200.09
2022-12-09T21:33:36.633Z,97193.53
2022-12-09T21:36:05.790Z,97208.66
2022-12-09T21:38:33.851Z,97206.00
2022-12-09T21:41:02.836Z,97212.97
2022-12-09T21:43:32.322Z,97208.19
2022-12-09T21:46:02.367Z,97205.09
2022-12-09T21:48:30.578Z,97211.34
2022-12-09T21:50:59.246Z,97216.09
2022-12-09T21:53:27.537Z,97193.41
2022-12-09T21:55:55.833Z,97212.63
2022-12-09T21:58:24.032Z,97209.84
2022-12-09T22:02:37.081Z,97218.59
2022-12-09T22:05:05.998Z,97211.44
2022-12-09T22:07:34.306Z,97222.06
2022-12-09T22:10:02.327Z,97218.34
2022-12-09T22:12:30.431Z,97230.19
2022-12-09T22:14:58.864Z,97223.47
2022-12-09T22:17:29.484Z,97228.75
2022-12-09T22:20:33.396Z,97236.94
2022-12-09T22:22:47.308Z,97231.19
2022-12-09T22:25:15.483Z,97228.81
2022-12-09T22:27:43.519Z,97242.47
2022-12-09T22:30:12.060Z,97228.94
2022-12-09T22:32:42.152Z,97236.53
2022-12-09T22:35:13.827Z,97240.50
2022-12-09T22:37:44.384Z,97212.22
2022-12-09T22:40:12.836Z,97243.47
2022-12-09T22:42:40.925Z,97244.16
2022-12-09T22:45:09.214Z,97252.28
2022-12-09T22:47:37.342Z,97247.97
2022-12-09T22:50:06.096Z,97217.56
2022-12-09T22:52:35.706Z,97248.38
2022-12-09T22:55:03.788Z,97247.88
2022-12-09T22:57:31.811Z,97248.72
2022-12-09T22:59:59.917Z,97240.31
2022-12-09T23:02:28.106Z,97243.59
2022-12-09T23:04:56.244Z,97245.44
2022-12-09T23:07:24.261Z,97240.28
2022-12-09T23:09:53.758Z,97231.25
2022-12-09T23:12:24.813Z,97240.25
2022-12-09T23:14:52.886Z,97238.03
2022-12-09T23:17:20.925Z,97210.53
2022-12-09T23:19:48.985Z,97242.56
2022-12-09T23:22:17.001Z,97248.72
2022-12-09T23:24:48.659Z,97240.09
2022-12-09T23:27:18.063Z,97251.38
2022-12-09T23:29:46.160Z,97243.88
2022-12-09T23:32:14.258Z,97250.53
2022-12-09T23:34:42.348Z,97247.44
2022-12-09T23:37:10.406Z,97241.31
2022-12-09T23:39:38.561Z,97246.25
2022-12-09T23:42:06.612Z,97245.00
2022-12-09T23:44:38.285Z,97239.09
2022-12-09T23:47:06.357Z,97243.16
2022-12-09T23:49:34.338Z,97233.91
2022-12-09T23:52:02.927Z,97233.88
2022-12-09T23:54:31.124Z,97211.28
2022-12-09T23:57:01.205Z,97241.03
2022-12-09T23:59:29.281Z,97244.50
